createdAt,value
2022-10-24T00:01:23.190Z,16.58
2022-10-24T00:03:51.104Z,16.83
2022-10-24T00:06:19.429Z,20.17
2022-10-24T00:08:47.257Z,18.73
2022-10-24T00:11:23.638Z,16.10
2022-10-24T00:13:52.147Z,16.80
2022-10-24T00:16:19.796Z,16.45
2022-10-24T00:18:47.264Z,19.08
2022-10-24T00:21:14.590Z,17.58
2022-10-24T00:23:42.262Z,20.15
2022-10-24T00:26:10.968Z,17.62
2022-10-24T00:28:38.919Z,18.98
2022-10-24T00:31:07.591Z,19.58
2022-10-24T00:33:34.968Z,17.15
2022-10-24T00:36:02.255Z,19.20
2022-10-24T00:38:29.817Z,18.65
2022-10-24T00:40:57.193Z,18.23
2022-10-24T00:43:26.642Z,17.02
2022-10-24T00:45:59.124Z,19.48
2022-10-24T00:51:21.706Z,19.55
2022-10-24T00:53:51.314Z,18.98
2022-10-24T00:56:21.957Z,18.23
2022-10-24T00:58:50.096Z,17.83
2022-10-24T01:01:17.643Z,22.15
2022-10-24T01:03:45.237Z,18.27
2022-10-24T01:06:32.040Z,18.65
2022-10-24T01:09:18.453Z,21.42
2022-10-24T01:11:50.578Z,20.50
2022-10-24T01:14:28.536Z,19.17
2022-10-24T01:17:14.644Z,21.95
2022-10-24T01:20:03.827Z,21.90
2022-10-24T01:22:43.806Z,22.27
2022-10-24T01:25:38.266Z,20.05
2022-10-24T01:28:15.575Z,19.75
2022-10-24T01:30:49.969Z,22.50
2022-10-24T01:33:23.141Z,21.35
2022-10-24T01:36:01.420Z,19.95
2022-10-24T01:38:34.555Z,22.13
2022-10-24T01:41:08.420Z,22.37
2022-10-24T01:43:43.234Z,20.60
2022-10-24T01:46:19.472Z,21.35
2022-10-24T01:48:55.247Z,23.40
2022-10-24T01:51:25.525Z,21.83
2022-10-24T01:53:53.359Z,20.45
2022-10-24T01:56:20.651Z,22.45
2022-10-24T01:58:48.263Z,21.58
2022-10-24T02:01:19.823Z,22.90
2022-10-24T02:03:52.138Z,18.98
2022-10-24T02:08:53.125Z,21.08
2022-10-24T02:11:20.765Z,21.08
2022-10-24T02:13:56.023Z,19.05
2022-10-24T02:16:23.652Z,20.73
2022-10-24T02:18:52.612Z,20.42
2022-10-24T02:21:32.122Z,21.83
2022-10-24T02:24:21.949Z,18.12
2022-10-24T02:26:54.398Z,19.80
2022-10-24T02:29:28.718Z,21.85
2022-10-24T02:31:57.996Z,19.37
2022-10-24T02:34:29.584Z,23.58
2022-10-24T02:36:58.187Z,21.58
2022-10-24T02:39:26.416Z,23.20
2022-10-24T02:41:54.938Z,17.58
2022-10-24T02:44:23.621Z,20.00
2022-10-24T02:46:53.233Z,17.83
2022-10-24T02:49:20.634Z,20.08
2022-10-24T02:51:48.512Z,23.77
2022-10-24T02:54:16.091Z,20.58
2022-10-24T02:56:49.859Z,20.15
2022-10-24T02:59:17.424Z,20.12
2022-10-24T03:01:44.794Z,17.90
2022-10-24T03:04:12.132Z,18.75
2022-10-24T03:06:39.710Z,19.30
2022-10-24T03:09:07.062Z,18.33
2022-10-24T03:11:34.471Z,19.98
2022-10-24T03:14:02.340Z,18.75
2022-10-24T03:16:29.784Z,18.87
2022-10-24T03:18:57.194Z,19.80
2022-10-24T03:21:24.736Z,23.12
2022-10-24T03:23:52.137Z,21.25
2022-10-24T03:26:19.459Z,21.85
2022-10-24T03:28:47.013Z,19.73
2022-10-24T03:31:14.334Z,22.58
2022-10-24T03:33:41.618Z,20.45
2022-10-24T03:36:09.241Z,19.77
2022-10-24T03:38:36.527Z,20.23
2022-10-24T03:41:05.141Z,21.70
2022-10-24T03:43:32.708Z,19.45
2022-10-24T03:46:00.027Z,34.90
2022-10-24T03:48:27.514Z,21.75
2022-10-24T03:50:55.380Z,19.60
2022-10-24T03:53:22.721Z,21.08
2022-10-24T03:55:50.083Z,20.75
2022-10-24T03:58:17.704Z,19.80
2022-10-24T04:00:45.317Z,19.83
2022-10-24T04:03:12.924Z,22.17
2022-10-24T04:05:40.776Z,21.42
2022-10-24T04:08:08.307Z,24.95
2022-10-24T04:10:36.189Z,20.35
2022-10-24T04:13:03.670Z,21.30
2022-10-24T04:15:31.153Z,21.08
2022-10-24T04:17:58.753Z,23.10
2022-10-24T04:20:26.204Z,20.60
2022-10-24T04:22:53.583Z,18.90
2022-10-24T04:25:21.236Z,22.33
2022-10-24T04:27:48.557Z,22.58
2022-10-24T04:30:16.919Z,18.60
2022-10-24T04:32:45.200Z,21.00
2022-10-24T04:35:14.124Z,22.70
2022-10-24T04:37:41.446Z,20.92
2022-10-24T04:40:09.426Z,21.95
2022-10-24T04:42:36.726Z,21.37
2022-10-24T04:45:04.254Z,20.65
2022-10-24T04:47:31.866Z,23.98
2022-10-24T04:49:59.149Z,24.60
2022-10-24T04:52:26.690Z,22.92
2022-10-24T04:54:54.726Z,24.60
2022-10-24T04:57:22.018Z,22.10
2022-10-24T04:59:49.287Z,22.08
2022-10-24T05:02:17.010Z,25.15
2022-10-24T05:04:44.395Z,24.73
2022-10-24T05:07:11.736Z,25.27
2022-10-24T05:09:39.300Z,24.17
2022-10-24T05:12:06.725Z,22.85
2022-10-24T05:14:34.310Z,25.65
2022-10-24T05:17:02.000Z,26.73
2022-10-24T05:19:29.579Z,23.80
2022-10-24T05:21:56.889Z,27.48
2022-10-24T05:24:24.998Z,28.27
2022-10-24T05:26:52.311Z,25.88
2022-10-24T05:29:19.856Z,25.55
2022-10-24T05:31:47.473Z,26.65
2022-10-24T05:34:14.757Z,31.27
2022-10-24T05:36:42.056Z,31.10
2022-10-24T05:39:09.587Z,28.52
2022-10-24T05:41:36.915Z,31.73
2022-10-24T05:44:04.394Z,33.33
2022-10-24T05:46:31.949Z,31.92
2022-10-24T05:48:59.288Z,30.23
2022-10-24T05:51:27.382Z,32.03
2022-10-24T05:53:54.948Z,34.45
2022-10-24T05:56:22.257Z,33.60
2022-10-24T05:58:49.561Z,33.63
2022-10-24T06:01:17.537Z,33.15
2022-10-24T06:03:45.190Z,36.42
2022-10-24T06:06:12.505Z,36.72
2022-10-24T06:08:39.811Z,33.33
2022-10-24T06:11:10.894Z,30.25
2022-10-24T06:13:38.809Z,32.38
2022-10-24T06:16:06.766Z,34.55
2022-10-24T06:18:34.339Z,40.03
2022-10-24T06:21:02.638Z,37.42
2022-10-24T06:23:30.370Z,35.15
2022-10-24T06:25:58.062Z,32.15
2022-10-24T06:28:25.460Z,31.65
2022-10-24T06:30:54.536Z,29.65
2022-10-24T06:33:22.107Z,32.55
2022-10-24T06:35:49.396Z,43.45
2022-10-24T06:38:16.688Z,41.95
2022-10-24T06:40:44.274Z,42.50
2022-10-24T06:43:11.599Z,39.65
2022-10-24T06:45:57.176Z,39.72
2022-10-24T06:48:24.756Z,47.53
2022-10-24T06:50:52.047Z,28.25
2022-10-24T06:55:51.847Z,41.60
2022-10-24T06:58:19.157Z,46.47
2022-10-24T07:00:46.501Z,41.47
2022-10-24T07:03:15.395Z,43.42
2022-10-24T07:05:42.892Z,45.42
2022-10-24T07:08:10.973Z,44.40
2022-10-24T07:10:38.650Z,52.50
2022-10-24T07:13:06.149Z,53.05
2022-10-24T07:15:33.480Z,52.33
2022-10-24T07:18:01.025Z,50.60
2022-10-24T07:20:28.407Z,48.20
2022-10-24T07:22:55.707Z,48.20
2022-10-24T07:25:23.264Z,52.45
2022-10-24T07:27:52.556Z,49.30
2022-10-24T07:30:19.841Z,44.17
2022-10-24T07:32:48.693Z,51.30
2022-10-24T07:35:16.254Z,56.22
2022-10-24T07:37:43.874Z,49.50
2022-10-24T07:40:12.207Z,54.75
2022-10-24T07:42:39.499Z,53.85
2022-10-24T07:45:07.400Z,54.53
2022-10-24T07:47:34.959Z,52.15
2022-10-24T07:50:02.350Z,54.42
2022-10-24T07:52:29.642Z,58.97
2022-10-24T07:54:58.050Z,48.45
2022-10-24T07:57:32.381Z,49.15
2022-10-24T07:59:59.960Z,52.00
2022-10-24T08:02:27.262Z,55.97
2022-10-24T08:04:54.854Z,55.03
2022-10-24T08:07:22.373Z,59.20
2022-10-24T08:09:51.226Z,54.85
2022-10-24T08:12:19.003Z,54.92
2022-10-24T08:14:46.366Z,55.95
2022-10-24T08:17:13.887Z,55.05
2022-10-24T08:19:43.739Z,61.22
2022-10-24T08:22:12.138Z,61.75
2022-10-24T08:24:39.437Z,64.28
2022-10-24T08:27:06.997Z,56.22
2022-10-24T08:29:34.334Z,59.55
2022-10-24T08:32:01.898Z,59.63
2022-10-24T08:34:29.468Z,57.17
2022-10-24T08:36:56.770Z,51.88
2022-10-24T08:39:24.326Z,58.30
2022-10-24T08:41:59.509Z,54.58
2022-10-24T08:44:30.446Z,57.08
2022-10-24T08:47:29.056Z,55.97
2022-10-24T08:50:23.385Z,46.35
2022-10-24T08:53:11.193Z,45.97
2022-10-24T08:55:55.195Z,53.70
2022-10-24T08:58:42.324Z,48.00
2022-10-24T09:01:27.450Z,47.30
2022-10-24T09:03:56.989Z,47.67
2022-10-24T09:06:27.024Z,50.38
2022-10-24T09:09:00.697Z,47.90
2022-10-24T09:11:49.754Z,49.65
2022-10-24T09:14:22.990Z,51.58
2022-10-24T09:17:13.283Z,48.92
2022-10-24T09:19:41.132Z,53.00
2022-10-24T09:22:11.484Z,50.08
2022-10-24T09:24:58.904Z,58.72
2022-10-24T09:27:34.603Z,52.17
2022-10-24T09:30:02.118Z,47.35
2022-10-24T09:32:31.834Z,45.88
2022-10-24T09:35:15.426Z,49.03
2022-10-24T09:37:47.417Z,52.33
2022-10-24T09:40:19.047Z,49.35
2022-10-24T09:42:52.833Z,43.42
2022-10-24T09:45:39.846Z,40.83
2022-10-24T09:48:17.420Z,44.92
2022-10-24T09:50:46.167Z,49.25
2022-10-24T09:53:32.688Z,42.60
2022-10-24T09:56:03.064Z,48.42
2022-10-24T09:58:35.540Z,48.58
2022-10-24T10:03:35.503Z,46.27
2022-10-24T10:06:14.852Z,47.38
2022-10-24T10:08:49.752Z,46.78
2022-10-24T10:11:30.567Z,42.80
2022-10-24T10:14:01.338Z,45.60
2022-10-24T10:16:37.551Z,35.03
2022-10-24T10:19:19.667Z,42.35
2022-10-24T10:22:04.428Z,44.50
2022-10-24T10:24:39.439Z,38.65
2022-10-24T10:27:38.532Z,36.70
2022-10-24T10:30:18.227Z,37.03
2022-10-24T10:33:24.389Z,37.58
2022-10-24T10:36:05.504Z,35.00
2022-10-24T10:38:41.671Z,35.70
2022-10-24T10:41:51.527Z,37.65
2022-10-24T10:44:33.956Z,33.22
2022-10-24T10:47:35.189Z,33.85
2022-10-24T10:50:15.791Z,35.80
2022-10-24T10:52:49.988Z,35.58
2022-10-24T10:55:21.620Z,37.47
2022-10-24T10:58:18.664Z,36.65
2022-10-24T11:00:47.796Z,30.52
2022-10-24T11:03:30.369Z,33.78
2022-10-24T11:06:00.576Z,31.65
2022-10-24T11:09:02.028Z,31.10
2022-10-24T11:11:32.483Z,34.03
2022-10-24T11:14:06.450Z,33.72
2022-10-24T11:16:35.528Z,37.00
2022-10-24T11:19:22.042Z,34.00
2022-10-24T11:21:50.306Z,27.45
2022-10-24T11:24:21.217Z,29.40
2022-10-24T11:26:54.618Z,29.42
2022-10-24T11:30:03.809Z,29.85
2022-10-24T11:32:50.805Z,29.33
2022-10-24T11:35:40.323Z,32.47
2022-10-24T11:38:16.459Z,29.35
2022-10-24T11:40:46.253Z,34.55
2022-10-24T11:43:19.111Z,28.50
2022-10-24T11:46:11.454Z,32.60
2022-10-24T11:49:00.624Z,29.50
2022-10-24T11:51:33.683Z,31.70
2022-10-24T11:54:04.775Z,27.80
2022-10-24T11:56:43.314Z,31.50
2022-10-24T11:59:20.017Z,30.35
2022-10-24T12:01:59.229Z,30.02
2022-10-24T12:04:39.117Z,29.17
2022-10-24T12:07:54.703Z,25.33
2022-10-24T12:11:01.627Z,25.55
2022-10-24T12:13:56.768Z,31.25
2022-10-24T12:16:42.709Z,28.42
2022-10-24T12:19:16.162Z,33.22
2022-10-24T12:21:51.843Z,25.80
2022-10-24T12:24:38.053Z,27.40
2022-10-24T12:27:08.379Z,24.95
2022-10-24T12:29:36.742Z,28.33
2022-10-24T12:32:24.004Z,26.40
2022-10-24T12:35:30.463Z,30.02
2022-10-24T12:37:58.593Z,28.67
2022-10-24T12:40:45.022Z,29.20
2022-10-24T12:43:43.211Z,24.95
2022-10-24T12:46:21.623Z,27.25
2022-10-24T12:48:59.494Z,29.55
2022-10-24T12:51:33.253Z,27.98
2022-10-24T12:54:02.499Z,29.87
2022-10-24T12:56:31.461Z,30.70
2022-10-24T12:59:02.966Z,31.83
2022-10-24T13:01:34.971Z,29.23
2022-10-24T13:04:25.504Z,28.23
2022-10-24T13:07:02.376Z,32.28
2022-10-24T13:09:55.401Z,29.77
2022-10-24T13:12:36.227Z,27.15
2022-10-24T13:15:16.886Z,32.83
2022-10-24T13:18:03.725Z,27.02
2022-10-24T13:20:37.401Z,29.33
2022-10-24T13:23:23.336Z,31.75
2022-10-24T13:25:58.553Z,27.92
2022-10-24T13:28:27.185Z,27.77
2022-10-24T13:30:54.365Z,28.70
2022-10-24T13:33:44.867Z,30.67
2022-10-24T13:36:17.506Z,31.67
2022-10-24T13:38:46.565Z,30.98
2022-10-24T13:41:21.358Z,40.55
2022-10-24T13:43:49.881Z,36.90
2022-10-24T13:46:28.722Z,36.50
2022-10-24T13:48:57.509Z,32.88
2022-10-24T13:51:32.563Z,37.67
2022-10-24T13:54:04.076Z,35.05
2022-10-24T13:56:36.560Z,38.35
2022-10-24T14:01:31.481Z,32.67
2022-10-24T14:03:59.504Z,41.33
2022-10-24T14:06:29.475Z,44.70
2022-10-24T14:09:06.939Z,49.45
2022-10-24T14:11:39.862Z,55.80
2022-10-24T14:14:18.623Z,40.08
2022-10-24T14:16:46.223Z,45.15
2022-10-24T14:19:29.539Z,42.20
2022-10-24T14:21:59.709Z,42.10
2022-10-24T14:24:27.107Z,43.08
2022-10-24T14:26:56.781Z,38.70
2022-10-24T14:29:32.398Z,36.03
2022-10-24T14:32:02.271Z,43.30
2022-10-24T14:34:35.955Z,41.08
2022-10-24T14:37:09.130Z,46.53
2022-10-24T14:39:37.033Z,41.97
2022-10-24T14:42:04.945Z,41.00
2022-10-24T14:44:35.017Z,42.88
2022-10-24T14:47:15.527Z,39.00
2022-10-24T14:49:42.826Z,40.28
2022-10-24T14:52:15.040Z,43.87
2022-10-24T14:54:44.447Z,40.33
2022-10-24T14:57:18.564Z,41.10
2022-10-24T14:59:46.947Z,43.20
2022-10-24T15:02:21.267Z,41.10
2022-10-24T15:04:50.410Z,38.55
2022-10-24T15:07:29.607Z,34.45
2022-10-24T15:10:01.346Z,36.88
2022-10-24T15:12:53.621Z,41.33
2022-10-24T15:15:23.004Z,35.60
2022-10-24T15:17:51.853Z,34.30
2022-10-24T15:20:22.131Z,38.33
2022-10-24T15:22:51.446Z,43.05
2022-10-24T15:25:31.265Z,38.15
2022-10-24T15:27:59.513Z,39.08
2022-10-24T15:30:36.873Z,39.42
2022-10-24T15:33:06.456Z,43.50
2022-10-24T15:35:36.250Z,37.88
2022-10-24T15:38:17.038Z,39.30
2022-10-24T15:40:47.451Z,40.15
2022-10-24T15:43:18.868Z,38.15
2022-10-24T15:45:46.658Z,42.08
2022-10-24T15:48:14.005Z,45.70
2022-10-24T15:50:44.493Z,42.42
2022-10-24T15:53:20.292Z,40.80
2022-10-24T15:55:47.768Z,37.03
2022-10-24T15:58:16.807Z,36.30
2022-10-24T16:00:44.511Z,37.25
2022-10-24T16:03:16.876Z,27.85
2022-10-24T16:05:47.397Z,34.03
2022-10-24T16:08:18.703Z,33.45
2022-10-24T16:10:48.255Z,38.20
2022-10-24T16:13:16.838Z,32.53
2022-10-24T16:15:44.785Z,33.28
2022-10-24T16:18:12.841Z,38.78
2022-10-24T16:20:40.995Z,33.53
2022-10-24T16:23:08.850Z,40.40
2022-10-24T16:25:37.637Z,41.35
2022-10-24T16:28:07.297Z,36.80
2022-10-24T16:30:38.125Z,38.60
2022-10-24T16:33:05.771Z,35.83
2022-10-24T16:35:35.748Z,36.08
2022-10-24T16:38:04.539Z,32.13
2022-10-24T16:40:32.719Z,63.10
2022-10-24T16:43:00.277Z,59.17
2022-10-24T16:45:27.659Z,54.03
2022-10-24T16:47:55.297Z,40.97
2022-10-24T16:50:26.151Z,52.45
2022-10-24T16:52:55.661Z,46.78
2022-10-24T16:55:23.503Z,58.17
2022-10-24T16:57:50.810Z,46.00
2022-10-24T17:00:22.497Z,53.47
2022-10-24T17:02:51.901Z,47.42
2022-10-24T17:05:22.981Z,44.80
2022-10-24T17:07:50.638Z,45.33
2022-10-24T17:10:20.765Z,38.83
2022-10-24T17:12:52.076Z,37.55
2022-10-24T17:15:22.171Z,45.67
2022-10-24T17:17:50.168Z,55.33
2022-10-24T17:20:17.952Z,49.97
2022-10-24T17:22:46.411Z,37.65
2022-10-24T17:25:23.377Z,38.40
2022-10-24T17:27:51.470Z,34.50
2022-10-24T17:30:24.977Z,41.53
2022-10-24T17:32:52.739Z,42.72
2022-10-24T17:35:22.346Z,37.15
2022-10-24T17:37:55.775Z,41.95
2022-10-24T17:40:25.998Z,42.83
2022-10-24T17:42:53.519Z,39.20
2022-10-24T17:45:23.128Z,33.97
2022-10-24T17:47:51.014Z,34.67
2022-10-24T17:50:18.808Z,36.80
2022-10-24T17:52:50.802Z,37.92
2022-10-24T17:55:41.316Z,33.53
2022-10-24T17:58:09.339Z,33.75
2022-10-24T18:00:37.282Z,32.15
2022-10-24T18:03:05.382Z,30.55
2022-10-24T18:05:37.442Z,30.17
2022-10-24T18:08:06.815Z,34.67
2022-10-24T18:10:34.973Z,30.08
2022-10-24T18:13:02.688Z,31.58
2022-10-24T18:15:30.293Z,34.72
2022-10-24T18:17:57.625Z,32.10
2022-10-24T18:20:24.956Z,33.67
2022-10-24T18:22:52.704Z,35.20
2022-10-24T18:25:22.768Z,31.62
2022-10-24T18:27:50.943Z,36.83
2022-10-24T18:30:19.500Z,32.03
2022-10-24T18:32:47.525Z,34.63
2022-10-24T18:35:15.550Z,31.95
2022-10-24T18:37:43.271Z,35.25
2022-10-24T18:40:11.291Z,39.97
2022-10-24T18:43:04.180Z,41.22
2022-10-24T18:45:32.923Z,38.20
2022-10-24T18:48:00.547Z,40.80
2022-10-24T18:50:28.732Z,36.03
2022-10-24T18:53:08.309Z,39.33
2022-10-24T18:55:35.950Z,36.75
2022-10-24T18:58:03.707Z,32.22
2022-10-24T19:00:32.861Z,36.70
2022-10-24T19:03:21.891Z,37.95
2022-10-24T19:05:59.760Z,39.15
2022-10-24T19:08:27.722Z,41.95
2022-10-24T19:10:56.361Z,41.63
2022-10-24T19:13:25.359Z,40.42
2022-10-24T19:15:56.987Z,42.28
2022-10-24T19:18:25.108Z,47.10
2022-10-24T19:20:52.662Z,39.90
2022-10-24T19:23:20.041Z,39.65
2022-10-24T19:25:47.588Z,44.00
2022-10-24T19:28:16.731Z,44.20
2022-10-24T19:30:45.207Z,49.47
2022-10-24T19:33:13.939Z,40.10
2022-10-24T19:35:46.731Z,44.42
2022-10-24T19:38:18.094Z,42.50
2022-10-24T19:40:51.818Z,36.13
2022-10-24T19:43:23.416Z,38.58
2022-10-24T19:46:07.099Z,45.23
2022-10-24T19:48:37.693Z,40.55
2022-10-24T19:51:12.203Z,40.85
2022-10-24T19:53:42.669Z,42.80
2022-10-24T19:56:20.160Z,45.28
2022-10-24T19:58:50.505Z,41.47
2022-10-24T20:01:20.692Z,41.17
2022-10-24T20:03:49.439Z,41.50
2022-10-24T20:06:17.143Z,40.70
2022-10-24T20:08:48.679Z,43.87
2022-10-24T20:11:16.887Z,43.78
2022-10-24T20:13:44.303Z,40.78
2022-10-24T20:16:11.825Z,40.30
2022-10-24T20:21:16.160Z,40.60
2022-10-24T20:23:45.610Z,49.65
2022-10-24T20:26:22.645Z,42.40
2022-10-24T20:28:51.799Z,43.95
2022-10-24T20:31:27.793Z,50.22
2022-10-24T20:34:05.185Z,58.53
2022-10-24T20:36:44.473Z,50.35
2022-10-24T20:39:12.395Z,49.97
2022-10-24T20:41:40.053Z,49.78
2022-10-24T20:44:07.491Z,55.50
2022-10-24T20:46:35.999Z,51.17
2022-10-24T20:49:03.546Z,55.78
2022-10-24T20:51:30.853Z,54.33
2022-10-24T20:53:58.427Z,49.97
2022-10-24T20:56:26.739Z,51.37
2022-10-24T20:58:56.664Z,54.75
2022-10-24T21:01:26.490Z,46.97
2022-10-24T21:03:55.265Z,50.00
2022-10-24T21:06:31.170Z,52.25
2022-10-24T21:11:34.847Z,50.00
2022-10-24T21:14:07.631Z,48.97
2022-10-24T21:16:35.279Z,67.72
2022-10-24T21:19:03.869Z,68.40
2022-10-24T21:21:31.248Z,64.18
2022-10-24T21:24:04.229Z,63.83
2022-10-24T21:26:40.171Z,59.45
2022-10-24T21:29:20.680Z,54.17
2022-10-24T21:31:55.520Z,53.38
2022-10-24T21:34:23.805Z,48.45
2022-10-24T21:36:51.120Z,56.20
2022-10-24T21:39:18.664Z,53.17
2022-10-24T21:41:45.936Z,55.30
2022-10-24T21:44:14.385Z,48.83
2022-10-24T21:46:42.027Z,48.55
2022-10-24T21:49:09.656Z,47.97
2022-10-24T21:51:39.145Z,50.53
2022-10-24T21:54:21.484Z,62.53
2022-10-24T21:56:48.954Z,54.33
2022-10-24T21:59:18.798Z,53.53
2022-10-24T22:01:47.229Z,53.83
2022-10-24T22:04:15.584Z,46.65
2022-10-24T22:06:43.334Z,47.20
2022-10-24T22:09:13.648Z,42.25
2022-10-24T22:11:42.316Z,47.90
2022-10-24T22:14:10.595Z,43.58
2022-10-24T22:16:38.047Z,46.45
2022-10-24T22:19:06.138Z,40.42
2022-10-24T22:21:44.718Z,46.28
2022-10-24T22:24:18.816Z,50.80
2022-10-24T22:26:47.093Z,44.20
2022-10-24T22:29:16.843Z,45.55
2022-10-24T22:31:44.662Z,42.28
2022-10-24T22:34:17.305Z,49.50
2022-10-24T22:37:02.342Z,46.65
2022-10-24T22:39:29.840Z,43.95
2022-10-24T22:41:57.605Z,40.08
2022-10-24T22:44:25.182Z,42.78
2022-10-24T22:47:17.449Z,36.83
2022-10-24T22:49:59.039Z,38.95
2022-10-24T22:52:26.651Z,38.42
2022-10-24T22:54:54.507Z,40.20
2022-10-24T22:57:22.126Z,41.28
2022-10-24T22:59:49.741Z,40.20
2022-10-24T23:02:28.964Z,39.05
2022-10-24T23:05:29.495Z,44.53
2022-10-24T23:08:03.740Z,44.70
2022-10-24T23:10:31.458Z,37.35
2022-10-24T23:12:59.382Z,48.38
2022-10-24T23:15:27.011Z,40.60
2022-10-24T23:17:54.647Z,41.78
2022-10-24T23:20:54.476Z,41.55
2022-10-24T23:23:29.149Z,37.58
2022-10-24T23:26:03.811Z,39.90
2022-10-24T23:28:38.230Z,40.45
2022-10-24T23:31:06.118Z,45.22
2022-10-24T23:33:33.588Z,46.13
2022-10-24T23:36:01.122Z,40.05
2022-10-24T23:38:28.915Z,45.12
2022-10-24T23:40:56.568Z,41.20
2022-10-24T23:43:24.163Z,39.88
2022-10-24T23:46:00.366Z,42.72
2022-10-24T23:48:59.097Z,41.53
2022-10-24T23:51:47.242Z,45.45
2022-10-24T23:54:15.483Z,48.53
2022-10-24T23:56:43.238Z,41.13
2022-10-24T23:59:10.556Z,39.53
